Time;durP1;ratioP1;P1;durP2;ratioP2;P2;SDS_P1;SDS_P2;PMS_P1;PMS_P2;Temp;Humidity;BMP_temperature;BMP_pressure;BME280_temperature;BME280_humidity;BME280_pressure;Samples;Min_cycle;Max_cycle;Signal;HPM_P1;HPM_P2
2022/12/26 00:00:37;;;;;;;27.83;16.20;;;11.10;98.70;;;;;;5040617;28;20079;-75
2022/12/26 00:03:03;;;;;;;54.47;20.33;;;11.10;98.70;;;;;;5033253;28;20060;-75
2022/12/26 00:05:33;;;;;;;80.53;23.60;;;11.00;98.80;;;;;;5014390;28;20037;-75
2022/12/26 00:07:59;;;;;;;55.70;20.63;;;11.00;98.90;;;;;;5027662;28;20033;-74
2022/12/26 00:10:24;;;;;;;79.25;25.80;;;11.00;99.00;;;;;;5058022;28;20022;-75
2022/12/26 00:12:50;;;;;;;61.22;22.27;;;11.00;99.10;;;;;;5045242;28;20021;-75
2022/12/26 00:15:16;;;;;;;66.63;24.33;;;10.90;99.20;;;;;;5049807;28;20029;-76
2022/12/26 00:17:41;;;;;;;115.95;27.30;;;10.90;99.20;;;;;;5047841;28;20075;-76
2022/12/26 00:20:08;;;;;;;71.20;23.63;;;10.90;99.20;;;;;;5047345;28;20036;-76
2022/12/26 00:22:34;;;;;;;38.88;20.02;;;10.90;99.60;;;;;;5034148;28;20017;-76
2022/12/26 00:25:00;;;;;;;107.32;31.48;;;10.90;99.40;;;;;;5043662;28;20052;-76
2022/12/26 00:27:25;;;;;;;73.90;26.25;;;10.90;99.50;;;;;;5038375;28;20036;-75
2022/12/26 00:29:51;;;;;;;144.05;28.98;;;10.90;99.50;;;;;;5039017;28;20048;-76
2022/12/26 00:32:16;;;;;;;64.15;27.33;;;10.90;99.50;;;;;;5035884;28;20037;-76
2022/12/26 00:34:42;;;;;;;62.17;26.67;;;10.90;99.50;;;;;;5022456;28;20390;-75
2022/12/26 00:37:08;;;;;;;129.85;32.35;;;10.90;99.50;;;;;;5047566;28;20022;-75
2022/12/26 00:39:33;;;;;;;138.80;32.53;;;10.90;99.50;;;;;;5044628;28;20028;-74
2022/12/26 00:41:59;;;;;;;268.00;40.20;;;10.90;99.60;;;;;;5047662;28;20107;-74
2022/12/26 00:44:24;;;;;;;79.70;28.02;;;10.90;99.60;;;;;;5032578;28;20048;-75
2022/12/26 00:46:50;;;;;;;85.60;33.97;;;10.90;99.60;;;;;;5054973;28;20055;-77
2022/12/26 00:49:16;;;;;;;79.85;28.55;;;10.90;99.60;;;;;;5036506;28;20072;-76
2022/12/26 00:51:41;;;;;;;90.95;31.45;;;10.90;99.90;;;;;;5050444;28;20489;-75
2022/12/26 00:54:07;;;;;;;143.02;35.13;;;10.90;99.60;;;;;;5036629;28;20617;-75
2022/12/26 00:56:32;;;;;;;312.83;39.63;;;10.90;99.70;;;;;;5039321;28;20031;-74
2022/12/26 00:58:58;;;;;;;302.45;42.15;;;10.90;99.70;;;;;;5038267;28;20029;-77
2022/12/26 01:01:24;;;;;;;82.80;27.63;;;10.90;99.70;;;;;;5037605;28;20028;-76
2022/12/26 01:03:50;;;;;;;66.82;29.35;;;10.90;99.80;;;;;;5026443;28;20017;-76
2022/12/26 01:06:16;;;;;;;83.10;34.25;;;10.90;99.80;;;;;;5026569;28;20089;-76
2022/12/26 01:08:42;;;;;;;84.07;34.50;;;10.90;99.80;;;;;;5037488;28;20036;-77
2022/12/26 01:11:11;;;;;;;72.93;31.67;;;10.90;99.80;;;;;;5038925;28;20036;-75
2022/12/26 01:13:37;;;;;;;77.13;34.60;;;10.90;99.70;;;;;;5011477;28;20025;-76
2022/12/26 01:16:04;;;;;;;73.18;32.83;;;10.90;99.70;;;;;;5044583;28;20029;-75
2022/12/26 01:18:31;;;;;;;59.00;31.10;;;10.90;99.90;;;;;;5050416;28;20060;-76
2022/12/26 01:20:59;;;;;;;70.95;35.55;;;10.90;99.90;;;;;;5036090;28;20037;-77
2022/12/26 01:23:25;;;;;;;61.17;31.52;;;10.90;99.90;;;;;;5044376;28;20099;-76
2022/12/26 01:25:50;;;;;;;66.90;31.45;;;10.90;99.90;;;;;;5032318;28;20511;-75
2022/12/26 01:28:16;;;;;;;69.10;32.83;;;10.90;99.90;;;;;;5049784;28;20471;-76
2022/12/26 01:30:42;;;;;;;65.82;32.65;;;10.90;99.90;;;;;;5017063;28;20036;-75
2022/12/26 01:33:16;;;;;;;57.97;30.63;;;10.90;99.90;;;;;;5055981;28;20139;-76
2022/12/26 01:35:52;;;;;;;53.78;28.27;;;10.90;99.90;;;;;;5027222;28;20029;-77
2022/12/26 01:38:18;;;;;;;58.90;31.60;;;10.90;99.90;;;;;;5052526;28;20016;-74
2022/12/26 01:40:44;;;;;;;47.50;26.52;;;10.90;99.90;;;;;;5044332;28;20034;-75
2022/12/26 01:43:12;;;;;;;56.03;29.45;;;11.00;99.90;;;;;;5046005;28;20139;-76
2022/12/26 01:45:38;;;;;;;49.33;26.42;;;11.00;99.90;;;;;;5051849;28;20824;-75
2022/12/26 01:48:18;;;;;;;43.92;24.65;;;11.00;99.90;;;;;;5048277;28;20056;-76
2022/12/26 01:50:53;;;;;;;45.75;25.58;;;11.00;99.80;;;;;;5028555;28;20052;-75
2022/12/26 01:53:26;;;;;;;49.83;26.63;;;11.00;99.80;;;;;;5046505;28;20041;-75
2022/12/26 01:56:02;;;;;;;49.38;28.40;;;10.90;99.70;;;;;;5029239;28;20071;-75
2022/12/26 01:58:34;;;;;;;49.22;26.95;;;11.00;99.70;;;;;;5028678;28;20060;-75
2022/12/26 02:01:02;;;;;;;38.78;23.08;;;11.00;99.60;;;;;;5057715;28;20035;-75
2022/12/26 02:06:13;;;;;;;47.28;24.70;;;11.00;99.60;;;;;;5026235;28;20096;-75
2022/12/26 02:08:39;;;;;;;42.35;25.70;;;11.00;99.60;;;;;;5038519;28;20016;-76
2022/12/26 02:11:32;;;;;;;36.92;23.25;;;10.90;99.50;;;;;;5036656;28;20418;-76
2022/12/26 02:13:59;;;;;;;41.90;24.40;;;11.00;99.50;;;;;;5055020;28;20500;-76
2022/12/26 02:16:24;;;;;;;44.42;26.35;;;10.90;99.50;;;;;;5037939;28;20022;-76
2022/12/26 02:18:50;;;;;;;39.42;24.23;;;10.80;99.40;;;;;;5053432;28;20027;-75
2022/12/26 02:21:31;;;;;;;42.53;24.58;;;10.80;99.60;;;;;;5050643;28;20120;-76
2022/12/26 02:24:25;;;;;;;45.92;25.75;;;10.80;99.60;;;;;;5046673;28;20052;-76
2022/12/26 02:27:10;;;;;;;40.85;24.70;;;10.80;99.50;;;;;;5027924;28;20041;-77
2022/12/26 02:30:05;;;;;;;41.28;24.27;;;10.80;99.60;;;;;;5046604;28;20381;-77
2022/12/26 02:32:48;;;;;;;47.08;27.02;;;10.80;99.60;;;;;;5046129;28;20022;-77
2022/12/26 02:35:29;;;;;;;45.53;27.00;;;10.80;99.60;;;;;;5042392;28;20070;-75
2022/12/26 02:38:13;;;;;;;44.70;25.40;;;10.90;99.50;;;;;;5033353;28;20033;-76
2022/12/26 02:40:56;;;;;;;42.88;26.05;;;10.90;99.50;;;;;;5053891;28;20029;-77
2022/12/26 02:43:33;;;;;;;40.53;25.40;;;10.90;99.50;;;;;;5033836;28;20022;-76
2022/12/26 02:49:18;;;;;;;47.75;29.52;;;11.00;99.30;;;;;;5038002;28;20141;-76
2022/12/26 03:14:34;;;;;;;39.92;27.20;;;10.90;99.00;;;;;;5034467;28;20514;-76
2022/12/26 03:17:19;;;;;;;36.78;25.38;;;10.80;98.90;;;;;;5047419;28;20093;-75
2022/12/26 03:19:58;;;;;;;40.15;29.05;;;10.80;98.90;;;;;;5020326;28;20036;-76
2022/12/26 03:22:41;;;;;;;42.63;29.48;;;10.80;98.90;;;;;;5018763;28;20152;-75
2022/12/26 03:27:59;;;;;;;30.10;22.05;;;10.80;98.80;;;;;;5036733;28;20039;-75
2022/12/26 03:34:16;;;;;;;39.45;27.95;;;10.70;99.00;;;;;;5065504;28;20098;-77
2022/12/26 03:35:55;;;;;;;36.75;25.30;;;10.70;98.70;;;;;;5041725;28;20037;-75
2022/12/26 03:38:27;;;;;;;38.28;28.70;;;10.70;98.70;;;;;;5052449;28;20025;-77
2022/12/26 04:19:25;;;;;;;45.60;32.95;;;10.60;99.30;;;;;;5043952;28;20036;-75
2022/12/26 04:45:58;;;;;;;48.85;35.63;;;10.60;99.10;;;;;;5036426;28;20084;-76
2022/12/26 04:51:08;;;;;;;45.67;35.25;;;10.70;98.90;;;;;;5060314;28;20067;-76
2022/12/26 04:53:33;;;;;;;44.38;33.13;;;10.70;98.90;;;;;;5003866;28;20025;-77
2022/12/26 04:55:59;;;;;;;40.97;30.77;;;10.70;98.90;;;;;;5053563;28;20025;-76
2022/12/26 04:58:25;;;;;;;43.90;32.58;;;10.80;98.90;;;;;;5013643;28;20026;-76
2022/12/26 05:00:51;;;;;;;44.72;33.13;;;10.70;98.90;;;;;;5022854;28;20021;-76
2022/12/26 05:11:33;;;;;;;32.33;25.48;;;10.60;98.80;;;;;;5038434;28;20063;-76
2022/12/26 05:13:59;;;;;;;29.73;24.65;;;10.60;98.90;;;;;;5036447;28;20136;-76
2022/12/26 05:30:22;;;;;;;28.20;23.73;;;10.60;98.40;;;;;;5046090;28;20044;-76
2022/12/26 05:35:33;;;;;;;26.00;20.70;;;10.60;98.50;;;;;;5047156;28;20089;-76
2022/12/26 05:38:00;;;;;;;22.52;18.33;;;10.60;98.40;;;;;;5046380;28;20055;-75
2022/12/26 05:40:25;;;;;;;23.02;19.30;;;10.50;98.30;;;;;;5045933;28;20017;-77
2022/12/26 05:42:51;;;;;;;25.05;19.48;;;10.50;98.30;;;;;;5047692;28;20145;-77
2022/12/26 05:45:16;;;;;;;21.98;17.88;;;10.60;98.30;;;;;;5044723;28;20029;-77
2022/12/26 05:47:42;;;;;;;21.67;18.05;;;10.50;98.20;;;;;;5060215;28;20024;-76
2022/12/26 05:50:08;;;;;;;21.85;17.48;;;10.50;98.30;;;;;;5043124;28;20071;-77
2022/12/26 05:52:34;;;;;;;20.90;14.80;;;10.40;98.30;;;;;;5039190;28;20078;-78
2022/12/26 05:54:59;;;;;;;20.00;15.80;;;10.40;98.30;;;;;;5038261;28;20028;-77
2022/12/26 05:57:25;;;;;;;17.75;12.63;;;10.40;98.30;;;;;;5038207;28;20047;-76
2022/12/26 05:59:50;;;;;;;12.93;9.25;;;10.40;98.30;;;;;;5047072;28;20018;-77
2022/12/26 06:02:16;;;;;;;16.25;11.85;;;10.40;98.20;;;;;;5041104;28;20025;-77
2022/12/26 06:04:42;;;;;;;14.70;11.27;;;10.40;98.20;;;;;;5032657;28;20541;-76
2022/12/26 06:07:07;;;;;;;14.38;9.25;;;10.30;98.20;;;;;;5039698;28;20018;-76
2022/12/26 06:09:33;;;;;;;13.38;10.18;;;10.40;98.10;;;;;;5031637;28;20229;-77
2022/12/26 06:11:59;;;;;;;12.93;9.82;;;10.40;98.10;;;;;;5059932;28;20032;-75
2022/12/26 06:14:25;;;;;;;13.05;9.43;;;10.40;98.10;;;;;;5031946;28;20022;-76
2022/12/26 06:16:51;;;;;;;13.88;10.20;;;10.40;98.10;;;;;;5049883;28;20028;-76
2022/12/26 06:19:16;;;;;;;14.93;11.38;;;10.30;98.00;;;;;;5053308;28;20033;-76
2022/12/26 06:21:42;;;;;;;12.02;9.15;;;10.30;98.10;;;;;;5055490;28;20017;-77
2022/12/26 06:24:08;;;;;;;15.30;10.48;;;10.30;98.10;;;;;;5017279;28;20472;-76
2022/12/26 06:26:33;;;;;;;15.98;9.68;;;10.20;98.20;;;;;;5043925;28;20044;-76
2022/12/26 06:28:59;;;;;;;14.18;10.80;;;10.20;98.30;;;;;;5053874;28;20043;-77
2022/12/26 06:31:25;;;;;;;13.50;10.93;;;10.20;98.30;;;;;;5040670;28;20021;-77
2022/12/26 06:33:55;;;;;;;14.90;10.88;;;10.20;98.30;;;;;;5044418;28;20032;-77
2022/12/26 06:36:22;;;;;;;14.18;10.57;;;10.20;98.30;;;;;;5039022;28;20040;-77
2022/12/26 06:38:49;;;;;;;13.77;10.00;;;10.20;98.30;;;;;;5031139;28;20017;-78
2022/12/26 06:41:17;;;;;;;14.50;10.15;;;10.20;98.40;;;;;;5035356;28;20026;-77
2022/12/26 06:43:43;;;;;;;13.70;10.40;;;10.20;98.40;;;;;;5050682;28;20035;-77
2022/12/26 06:46:12;;;;;;;14.18;11.13;;;10.20;98.40;;;;;;5041873;28;20038;-77
2022/12/26 06:48:38;;;;;;;14.98;10.95;;;10.20;98.40;;;;;;5046879;28;20027;-78
2022/12/26 06:51:13;;;;;;;13.82;9.43;;;10.20;98.20;;;;;;5041958;28;20021;-77
2022/12/26 06:53:39;;;;;;;14.73;10.63;;;10.20;98.20;;;;;;5028869;28;20067;-77
2022/12/26 06:56:10;;;;;;;12.85;9.52;;;10.20;98.40;;;;;;5051826;28;20550;-77
2022/12/26 06:58:36;;;;;;;14.82;9.80;;;10.20;98.40;;;;;;5043975;28;20105;-77
2022/12/26 07:01:11;;;;;;;15.88;10.43;;;10.20;98.30;;;;;;5031006;28;20108;-76
2022/12/26 07:03:37;;;;;;;16.08;11.23;;;10.20;98.40;;;;;;5055414;28;20070;-76
2022/12/26 07:06:10;;;;;;;14.40;10.43;;;10.20;98.40;;;;;;5038939;28;20041;-76
2022/12/26 07:08:36;;;;;;;16.25;11.65;;;10.10;98.50;;;;;;5057675;28;20025;-76
2022/12/26 07:11:02;;;;;;;16.67;11.10;;;10.20;98.50;;;;;;5060195;28;20144;-76
2022/12/26 07:13:28;;;;;;;14.93;10.88;;;10.10;98.40;;;;;;5029448;28;20028;-76
2022/12/26 07:15:53;;;;;;;18.83;11.13;;;10.20;98.40;;;;;;5032355;28;20699;-77
2022/12/26 07:18:19;;;;;;;14.20;10.55;;;10.20;98.40;;;;;;5046199;28;20023;-77
2022/12/26 07:20:45;;;;;;;19.75;11.93;;;10.20;98.20;;;;;;5059808;28;20029;-78
2022/12/26 07:23:11;;;;;;;18.50;13.32;;;10.20;98.20;;;;;;5055411;28;20013;-79
2022/12/26 07:25:37;;;;;;;21.65;13.50;;;10.20;98.30;;;;;;5042075;28;20053;-78
2022/12/26 07:28:03;;;;;;;20.08;13.02;;;10.20;98.40;;;;;;5035159;28;20020;-78
2022/12/26 07:30:29;;;;;;;21.67;11.52;;;10.10;98.50;;;;;;5047875;28;20036;-78
2022/12/26 07:32:54;;;;;;;16.50;11.93;;;10.20;98.40;;;;;;5032254;28;20367;-79
2022/12/26 07:35:20;;;;;;;18.52;12.25;;;10.20;98.40;;;;;;5057757;28;20029;-78
2022/12/26 07:37:45;;;;;;;20.20;13.35;;;10.20;98.30;;;;;;5040449;28;20399;-79
2022/12/26 07:40:11;;;;;;;18.85;13.70;;;10.10;98.30;;;;;;5060181;28;20025;-80
2022/12/26 07:42:37;;;;;;;17.30;12.15;;;10.20;98.30;;;;;;5023426;28;20025;-77
2022/12/26 07:45:03;;;;;;;20.92;13.73;;;10.10;98.30;;;;;;5033995;28;20732;-78
2022/12/26 07:47:29;;;;;;;16.50;11.60;;;10.10;98.30;;;;;;5023312;28;20017;-77
2022/12/26 07:49:55;;;;;;;22.30;13.40;;;10.10;98.30;;;;;;5053032;28;20036;-77
2022/12/26 07:52:21;;;;;;;16.20;11.70;;;10.00;98.30;;;;;;5039309;28;20023;-77
2022/12/26 07:54:47;;;;;;;15.70;10.13;;;10.00;98.30;;;;;;5047399;28;20596;-77
2022/12/26 07:57:13;;;;;;;17.92;11.82;;;10.10;98.60;;;;;;5035961;28;20104;-77
2022/12/26 07:59:39;;;;;;;15.50;11.95;;;10.00;98.30;;;;;;5023527;28;20052;-79
2022/12/26 08:02:05;;;;;;;16.90;11.82;;;9.90;98.50;;;;;;5045685;28;20434;-78
2022/12/26 08:04:32;;;;;;;16.27;10.43;;;10.00;98.50;;;;;;5044308;28;20033;-78
2022/12/26 08:06:57;;;;;;;17.48;11.70;;;10.00;98.50;;;;;;5034205;28;20027;-78
2022/12/26 08:09:23;;;;;;;12.15;8.63;;;10.10;98.40;;;;;;5055691;28;20391;-78
2022/12/26 08:11:48;;;;;;;11.98;9.23;;;10.10;98.50;;;;;;5056813;28;20040;-78
2022/12/26 08:14:17;;;;;;;12.88;8.88;;;10.00;98.40;;;;;;5052534;28;20018;-78
2022/12/26 08:16:43;;;;;;;11.98;8.32;;;10.00;98.40;;;;;;5028946;28;20028;-77
2022/12/26 08:19:10;;;;;;;13.20;8.23;;;10.10;98.40;;;;;;5034499;28;20028;-79
2022/12/26 08:21:36;;;;;;;11.88;8.38;;;10.10;98.30;;;;;;5037729;28;20028;-78
2022/12/26 08:24:02;;;;;;;12.82;7.38;;;10.10;98.30;;;;;;5036131;28;20029;-78
2022/12/26 08:26:30;;;;;;;10.55;6.40;;;10.10;98.10;;;;;;5051283;28;20041;-78
2022/12/26 08:28:56;;;;;;;13.93;6.03;;;10.20;98.00;;;;;;5046711;28;20476;-80
2022/12/26 08:31:22;;;;;;;9.63;5.82;;;10.30;98.10;;;;;;5034823;28;20382;-80
2022/12/26 08:33:53;;;;;;;7.45;5.45;;;10.30;98.00;;;;;;5035969;28;20558;-77
2022/12/26 08:36:19;;;;;;;10.05;5.53;;;10.50;97.80;;;;;;5043973;28;20106;-77
2022/12/26 08:38:45;;;;;;;8.18;4.97;;;10.50;97.60;;;;;;5038744;28;20053;-77
2022/12/26 08:41:11;;;;;;;13.18;6.43;;;10.60;97.40;;;;;;5051023;28;20024;-78
2022/12/26 08:43:36;;;;;;;11.43;6.55;;;10.50;97.40;;;;;;5044085;28;20026;-78
2022/12/26 08:46:07;;;;;;;9.80;5.15;;;10.40;97.50;;;;;;5039765;28;20032;-76
2022/12/26 08:48:34;;;;;;;11.25;5.47;;;10.30;97.90;;;;;;5058036;28;20497;-78
2022/12/26 08:51:07;;;;;;;9.00;4.32;;;10.40;97.60;;;;;;5038941;28;20031;-77
2022/12/26 08:53:36;;;;;;;9.23;4.53;;;10.40;97.90;;;;;;5046978;28;20035;-76
2022/12/26 08:56:05;;;;;;;12.18;5.82;;;10.50;97.80;;;;;;5046518;28;20419;-79
2022/12/26 08:58:31;;;;;;;8.02;4.72;;;10.50;97.90;;;;;;5059567;28;20020;-79
2022/12/26 09:01:19;;;;;;;8.68;4.75;;;10.80;97.80;;;;;;5048973;28;20040;-80
2022/12/26 09:03:45;;;;;;;6.75;3.30;;;11.20;97.50;;;;;;5035767;28;20396;-78
2022/12/26 09:06:13;;;;;;;9.18;3.97;;;11.60;96.00;;;;;;5040938;28;20032;-78
2022/12/26 09:08:40;;;;;;;7.95;3.38;;;11.60;95.10;;;;;;5045953;28;20028;-80
2022/12/26 09:11:08;;;;;;;6.07;2.80;;;11.50;95.20;;;;;;5006317;28;20035;-79
2022/12/26 09:13:36;;;;;;;8.07;3.33;;;11.40;95.50;;;;;;5049744;28;20016;-79
2022/12/26 09:16:15;;;;;;;6.18;2.80;;;11.20;95.70;;;;;;5045041;28;20039;-79
2022/12/26 09:18:42;;;;;;;9.30;3.15;;;11.10;95.90;;;;;;5028113;28;20021;-78
2022/12/26 09:21:09;;;;;;;10.77;3.63;;;11.10;95.90;;;;;;5029512;28;20061;-79
2022/12/26 09:23:36;;;;;;;7.63;2.72;;;11.10;96.00;;;;;;5044822;28;20036;-80
2022/12/26 09:26:07;;;;;;;6.43;2.72;;;11.10;95.90;;;;;;5039497;28;20191;-79
2022/12/26 09:28:34;;;;;;;6.10;3.25;;;11.20;95.80;;;;;;5045077;28;20073;-78
2022/12/26 09:31:12;;;;;;;8.75;3.28;;;11.10;96.00;;;;;;5037655;28;20061;-78
2022/12/26 09:33:38;;;;;;;6.65;2.22;;;11.10;96.10;;;;;;5042545;28;20036;-78
2022/12/26 09:36:06;;;;;;;7.40;2.90;;;11.00;96.10;;;;;;5037968;28;20029;-78
2022/12/26 09:38:33;;;;;;;10.15;4.07;;;11.10;96.20;;;;;;5049716;28;20550;-76
2022/12/26 09:41:19;;;;;;;9.23;3.17;;;11.00;96.30;;;;;;5059503;28;20032;-78
2022/12/26 09:44:32;;;;;;;8.98;3.13;;;11.00;96.30;;;;;;5052686;28;20039;-79
2022/12/26 09:47:29;;;;;;;10.23;3.58;;;11.00;96.50;;;;;;4968515;28;20537;-77
2022/12/26 09:50:19;;;;;;;7.40;2.92;;;11.00;96.60;;;;;;5029290;28;20653;-77
2022/12/26 09:53:13;;;;;;;11.50;3.65;;;10.90;96.90;;;;;;5049772;28;20029;-77
2022/12/26 09:56:01;;;;;;;9.18;4.28;;;10.80;97.20;;;;;;5051607;28;20100;-77
2022/12/26 09:58:32;;;;;;;11.00;4.43;;;10.80;97.70;;;;;;5042513;28;20013;-79
2022/12/26 10:01:13;;;;;;;12.45;4.30;;;10.80;98.00;;;;;;5034204;28;20492;-79
2022/12/26 10:03:41;;;;;;;10.05;3.78;;;10.80;97.80;;;;;;5034439;28;20156;-76
2022/12/26 10:06:22;;;;;;;12.27;4.78;;;10.80;97.80;;;;;;5037211;28;20067;-75
2022/12/26 10:09:03;;;;;;;12.10;5.00;;;10.70;98.00;;;;;;5036337;28;20032;-76
2022/12/26 10:11:53;;;;;;;7.20;3.38;;;10.70;98.20;;;;;;5039939;28;20056;-77
2022/12/26 10:14:39;;;;;;;7.82;2.70;;;10.70;98.10;;;;;;5042768;28;20833;-77
2022/12/26 10:17:27;;;;;;;7.20;2.88;;;10.50;97.90;;;;;;5051849;28;20032;-77
2022/12/26 10:20:08;;;;;;;12.10;3.40;;;10.50;98.20;;;;;;5044137;28;20176;-74
2022/12/26 10:23:13;;;;;;;12.55;3.20;;;10.40;97.80;;;;;;5053072;28;20033;-77
2022/12/26 10:25:47;;;;;;;9.32;2.90;;;10.40;97.70;;;;;;5021788;28;20145;-77
2022/12/26 10:28:29;;;;;;;17.27;7.68;;;10.40;97.90;;;;;;5044852;28;20514;-78
2022/12/26 10:30:58;;;;;;;8.25;4.15;;;10.50;97.90;;;;;;5033288;28;20454;-77
2022/12/26 10:33:44;;;;;;;8.48;3.90;;;10.50;97.80;;;;;;5043459;28;20021;-78
2022/12/26 10:36:25;;;;;;;13.35;3.97;;;10.50;97.90;;;;;;5050145;28;20018;-78
2022/12/26 10:38:53;;;;;;;10.00;3.47;;;10.50;97.70;;;;;;5039904;28;20025;-76
2022/12/26 10:41:52;;;;;;;11.05;3.03;;;10.50;97.90;;;;;;5061334;28;20083;-75
2022/12/26 10:44:19;;;;;;;8.95;3.75;;;10.40;97.90;;;;;;5045486;28;20249;-76
2022/12/26 10:47:13;;;;;;;8.90;3.47;;;10.50;97.80;;;;;;5060281;28;20403;-76
2022/12/26 10:49:43;;;;;;;13.13;4.93;;;10.50;97.80;;;;;;5041039;28;20383;-76
2022/12/26 10:52:10;;;;;;;12.32;3.17;;;10.40;97.90;;;;;;5055914;28;20111;-76
2022/12/26 10:54:40;;;;;;;13.93;2.92;;;10.40;97.30;;;;;;5042793;28;20096;-77
2022/12/26 10:57:07;;;;;;;17.40;3.15;;;10.40;96.80;;;;;;5060477;28;20100;-75
2022/12/26 10:59:46;;;;;;;18.63;3.05;;;10.30;96.10;;;;;;5032559;28;20022;-76
2022/12/26 11:02:23;;;;;;;20.85;3.08;;;10.20;95.60;;;;;;5052218;28;20163;-76
2022/12/26 11:05:13;;;;;;;21.23;3.85;;;10.10;95.20;;;;;;5057409;28;20136;-75
2022/12/26 11:08:04;;;;;;;17.10;3.08;;;10.00;94.90;;;;;;5049319;28;20380;-76
2022/12/26 11:10:30;;;;;;;16.13;2.30;;;10.00;94.70;;;;;;5035758;28;20059;-75
2022/12/26 11:13:02;;;;;;;16.23;2.65;;;9.90;94.60;;;;;;5036172;28;20089;-75
2022/12/26 11:15:40;;;;;;;8.07;2.22;;;9.90;94.90;;;;;;5021410;28;20024;-75
2022/12/26 11:18:21;;;;;;;12.85;2.40;;;10.00;95.90;;;;;;5038992;28;20025;-76
2022/12/26 11:20:48;;;;;;;10.52;2.35;;;10.00;96.30;;;;;;5035499;28;20025;-76
2022/12/26 11:23:30;;;;;;;11.25;2.50;;;9.90;95.50;;;;;;5050355;28;20379;-76
2022/12/26 11:25:59;;;;;;;8.85;1.92;;;9.90;94.40;;;;;;5022325;28;20044;-75
2022/12/26 11:28:33;;;;;;;12.70;2.35;;;9.90;94.30;;;;;;5049172;28;20064;-77
2022/12/26 11:31:06;;;;;;;14.73;2.83;;;9.80;93.70;;;;;;5013119;28;20033;-76
2022/12/26 11:33:43;;;;;;;18.58;3.10;;;9.80;93.40;;;;;;5036422;28;20032;-75
2022/12/26 11:36:09;;;;;;;13.63;2.45;;;9.90;93.20;;;;;;5045086;28;20338;-75
2022/12/26 11:38:56;;;;;;;14.68;2.65;;;9.90;93.20;;;;;;5056394;28;20566;-78
2022/12/26 11:41:30;;;;;;;10.45;2.40;;;9.90;92.20;;;;;;5034365;28;20030;-77
2022/12/26 11:44:04;;;;;;;14.15;2.97;;;9.90;92.80;;;;;;5050138;28;20067;-76
2022/12/26 11:46:41;;;;;;;10.65;2.28;;;9.80;92.40;;;;;;5032866;28;20562;-77
2022/12/26 11:49:18;;;;;;;10.80;1.98;;;9.70;92.30;;;;;;5038334;28;20060;-75
2022/12/26 11:51:46;;;;;;;10.48;2.22;;;9.70;92.80;;;;;;5033698;28;20065;-76
2022/12/26 11:54:22;;;;;;;9.23;2.20;;;9.70;92.60;;;;;;5054553;28;20022;-77
2022/12/26 11:56:48;;;;;;;13.73;1.75;;;9.70;92.10;;;;;;5015137;28;20025;-77
2022/12/26 11:59:22;;;;;;;9.27;2.15;;;9.60;92.30;;;;;;5041436;28;20467;-77
2022/12/26 12:02:16;;;;;;;10.52;2.05;;;9.60;92.40;;;;;;5040808;28;20739;-77
2022/12/26 12:04:43;;;;;;;13.07;2.55;;;9.60;92.10;;;;;;5065090;28;20100;-77
2022/12/26 12:07:14;;;;;;;7.80;1.75;;;9.40;91.60;;;;;;5050354;28;20444;-78
2022/12/26 12:09:56;;;;;;;9.25;1.88;;;9.50;91.90;;;;;;5057611;28;20383;-77
2022/12/26 12:12:43;;;;;;;14.57;2.05;;;9.60;91.90;;;;;;5036331;28;20357;-77
2022/12/26 12:15:30;;;;;;;9.05;1.83;;;9.60;91.30;;;;;;5047409;28;20037;-77
2022/12/26 12:18:26;;;;;;;9.52;1.63;;;9.60;91.80;;;;;;5046855;28;20021;-78
2022/12/26 12:21:20;;;;;;;10.38;1.70;;;9.80;91.60;;;;;;5035425;28;20084;-77
2022/12/26 12:24:16;;;;;;;7.03;1.25;;;10.00;91.20;;;;;;5040175;28;20092;-77
2022/12/26 12:26:53;;;;;;;16.42;5.78;;;10.10;90.50;;;;;;5036076;28;20499;-78
2022/12/26 12:29:48;;;;;;;9.98;3.58;;;10.20;91.00;;;;;;5032821;28;20018;-77
2022/12/26 12:32:23;;;;;;;6.38;1.50;;;10.30;90.20;;;;;;5028480;28;20041;-79
2022/12/26 12:35:06;;;;;;;11.02;1.65;;;10.30;89.90;;;;;;5045405;28;20029;-78
2022/12/26 12:37:38;;;;;;;8.05;2.20;;;10.30;87.00;;;;;;5015671;28;20370;-77
2022/12/26 12:40:23;;;;;;;9.02;1.60;;;10.20;87.30;;;;;;5018905;28;20025;-77
2022/12/26 12:43:30;;;;;;;11.38;2.03;;;10.20;87.40;;;;;;5034354;28;20040;-77
2022/12/26 12:46:18;;;;;;;10.63;2.15;;;10.20;87.00;;;;;;5018385;28;20042;-77
2022/12/26 12:49:10;;;;;;;9.18;1.90;;;10.20;87.80;;;;;;5029065;28;20055;-78
2022/12/26 12:51:38;;;;;;;13.45;4.22;;;10.50;89.20;;;;;;5036045;28;20024;-78
2022/12/26 12:54:25;;;;;;;17.42;3.92;;;10.90;85.60;;;;;;5037449;28;20025;-77
2022/12/26 12:57:05;;;;;;;16.17;4.85;;;11.20;84.20;;;;;;5037542;28;20029;-77
2022/12/26 12:59:46;;;;;;;21.75;3.70;;;11.40;82.80;;;;;;5047363;28;20778;-78
2022/12/26 13:02:40;;;;;;;10.52;2.20;;;11.50;81.40;;;;;;5038790;28;20083;-77
2022/12/26 13:05:29;;;;;;;10.85;1.70;;;11.70;81.00;;;;;;5041348;28;20053;-78
2022/12/26 13:08:26;;;;;;;7.88;1.55;;;11.70;80.10;;;;;;5037427;28;20033;-79
2022/12/26 13:10:58;;;;;;;8.27;1.80;;;11.50;80.30;;;;;;5016883;28;20460;-77
2022/12/26 13:13:36;;;;;;;8.40;2.28;;;11.30;80.50;;;;;;5034786;28;20028;-77
2022/12/26 13:16:13;;;;;;;15.52;2.90;;;11.30;80.00;;;;;;5029048;28;20021;-77
2022/12/26 13:18:47;;;;;;;9.52;1.85;;;11.20;80.70;;;;;;5038764;28;20024;-76
2022/12/26 13:21:18;;;;;;;9.00;1.85;;;10.90;80.50;;;;;;5044414;28;20025;-78
2022/12/26 13:27:04;;;;;;;6.80;1.80;;;10.50;82.20;;;;;;5038407;28;20052;-78
2022/12/26 13:29:44;;;;;;;8.27;1.92;;;10.30;82.70;;;;;;5041291;28;20022;-79
2022/12/26 13:32:21;;;;;;;12.32;1.90;;;10.30;84.60;;;;;;5052339;28;20102;-77
2022/12/26 13:34:49;;;;;;;12.85;2.15;;;10.20;83.80;;;;;;5037712;28;20036;-76
2022/12/26 13:37:54;;;;;;;9.75;2.40;;;10.20;83.80;;;;;;5041101;28;20394;-77
2022/12/26 13:40:27;;;;;;;10.45;1.83;;;10.30;84.00;;;;;;5038004;28;20184;-76
2022/12/26 13:45:56;;;;;;;8.77;1.92;;;10.10;83.90;;;;;;5039256;28;20449;-77
2022/12/26 13:48:25;;;;;;;14.60;2.85;;;10.00;83.90;;;;;;5038384;28;20033;-77
2022/12/26 13:50:51;;;;;;;8.00;1.55;;;10.00;82.40;;;;;;5036531;28;20097;-76
2022/12/26 13:53:23;;;;;;;8.13;1.60;;;9.90;84.20;;;;;;5043583;28;20022;-77
2022/12/26 13:55:52;;;;;;;6.97;1.48;;;9.90;82.00;;;;;;5021423;28;20025;-77
2022/12/26 13:58:45;;;;;;;10.18;1.85;;;9.90;82.00;;;;;;5044492;28;20104;-78
2022/12/26 14:01:34;;;;;;;8.55;1.95;;;10.00;80.70;;;;;;5040943;28;20021;-77
2022/12/26 14:04:25;;;;;;;10.48;2.00;;;10.40;78.90;;;;;;5022771;28;20033;-77
2022/12/26 14:07:10;;;;;;;7.10;2.55;;;10.70;76.10;;;;;;5037676;28;20032;-76
2022/12/26 14:09:52;;;;;;;9.52;3.00;;;10.70;75.20;;;;;;5051538;28;20104;-75
2022/12/26 14:13:01;;;;;;;8.93;2.55;;;10.40;75.10;;;;;;5027272;28;20025;-76
2022/12/26 14:15:52;;;;;;;12.35;2.90;;;10.10;76.20;;;;;;5025444;28;20044;-77
2022/12/26 14:18:51;;;;;;;13.80;2.92;;;10.20;75.50;;;;;;5048903;28;20025;-76
2022/12/26 14:21:42;;;;;;;12.40;5.68;;;10.20;75.20;;;;;;5040476;28;20037;-77
2022/12/26 14:24:28;;;;;;;11.90;3.97;;;10.00;75.80;;;;;;5059297;28;20028;-77
2022/12/26 14:27:15;;;;;;;9.10;2.63;;;9.70;76.10;;;;;;5043610;28;20611;-76
2022/12/26 14:29:55;;;;;;;11.27;3.30;;;9.60;77.10;;;;;;5036499;28;20586;-76
2022/12/26 14:32:39;;;;;;;11.25;4.70;;;9.50;78.50;;;;;;5034324;28;20037;-75
2022/12/26 14:35:27;;;;;;;9.55;2.72;;;9.30;78.90;;;;;;5052625;28;20032;-77
2022/12/26 14:38:20;;;;;;;12.80;2.88;;;9.20;79.90;;;;;;5035088;28;20025;-76
2022/12/26 14:41:06;;;;;;;6.53;2.08;;;9.00;80.50;;;;;;5030858;28;20021;-76
2022/12/26 14:43:37;;;;;;;10.60;3.03;;;8.90;81.10;;;;;;5048244;28;20028;-76
2022/12/26 14:46:29;;;;;;;9.13;3.13;;;8.80;82.20;;;;;;5033219;28;20041;-76
2022/12/26 14:48:58;;;;;;;9.27;3.17;;;8.70;82.40;;;;;;5043848;28;20025;-76
2022/12/26 14:51:31;;;;;;;9.98;3.58;;;8.60;82.90;;;;;;5055685;28;20036;-76
2022/12/26 14:54:21;;;;;;;13.55;5.03;;;8.60;83.30;;;;;;5046599;28;20045;-77
2022/12/26 14:56:49;;;;;;;10.30;3.33;;;8.60;84.40;;;;;;5040044;28;20025;-77
2022/12/26 14:59:28;;;;;;;9.73;2.10;;;8.50;84.50;;;;;;5053830;28;20032;-77
2022/12/26 15:02:10;;;;;;;12.20;3.53;;;8.50;84.80;;;;;;5046925;28;20457;-75
2022/12/26 15:04:49;;;;;;;9.85;2.17;;;8.50;83.70;;;;;;5051048;28;20649;-76
2022/12/26 15:08:00;;;;;;;11.05;2.90;;;8.40;83.90;;;;;;5030808;28;20063;-76
2022/12/26 15:11:05;;;;;;;9.20;1.88;;;8.40;84.30;;;;;;5062508;28;20471;-76
2022/12/26 15:14:00;;;;;;;9.30;2.05;;;8.40;85.00;;;;;;5051321;28;20502;-76
2022/12/26 15:16:29;;;;;;;9.70;3.33;;;8.30;84.30;;;;;;5044470;28;20018;-77
2022/12/26 15:19:06;;;;;;;13.05;6.43;;;8.30;83.40;;;;;;5040102;28;20024;-76